Neapolis, Ohio
Current Conditions -  °F | °C
As of 9:52 AM on Monday 24 Nov 2014 (Local Time) from KTOL Reporting Station
Light Rain Light Rain  
Wind Chill: 55°   Ceiling: 9000
Heat Index: 55°   Visibility: 10mi
Dew Point: 50°   Wind: 21mph
Humidity: 83%   Direction: 210°SSW
Pressure: 29.15"   Gusts: 39mph
Location:  41.49°N, 83.87°W
Report Text: KTOL 241452Z 21018G34KT 10SM -RA FEW070 BKN090 BKN110 13/10 A2915 RMK AO2 PK WND 23034/1450 RAB31 SLP870 P0000 60013 T01280100 58008
Loading
Personal Weather Stations






























Interactive Weather Map New forecast layout! Learn more

10-Day Weather Forecast

Advertisements
Track Severe Weather on mobile